createdAt,value
2018-01-15T00:00:33.907Z,23.40
2018-01-15T00:02:59.914Z,24.87
2018-01-15T00:05:25.867Z,25.40
2018-01-15T00:07:52.563Z,27.10
2018-01-15T00:10:18.501Z,30.62
2018-01-15T00:12:44.418Z,24.97
2018-01-15T00:15:11.526Z,23.40
2018-01-15T00:17:37.455Z,23.65
2018-01-15T00:20:03.503Z,27.30
2018-01-15T00:22:33.374Z,20.48
2018-01-15T00:24:59.303Z,25.77
2018-01-15T00:27:26.029Z,22.50
2018-01-15T00:29:52.778Z,24.58
2018-01-15T00:32:19.290Z,29.63
2018-01-15T00:34:45.265Z,24.27
2018-01-15T00:37:11.201Z,24.37
2018-01-15T00:39:47.323Z,22.20
2018-01-15T00:42:14.266Z,24.90
2018-01-15T00:44:40.227Z,22.80
2018-01-15T00:47:06.123Z,22.67
2018-01-15T00:49:32.061Z,24.73
2018-01-15T00:51:57.971Z,24.10
2018-01-15T00:54:23.962Z,26.37
2018-01-15T00:56:49.995Z,25.30
2018-01-15T00:59:15.939Z,25.00
2018-01-15T01:01:41.929Z,24.53
2018-01-15T01:04:07.886Z,28.70
2018-01-15T01:06:34.160Z,23.53
2018-01-15T01:09:00.410Z,25.73
2018-01-15T01:11:26.373Z,24.50
2018-01-15T01:13:52.309Z,24.30
2018-01-15T01:16:19.040Z,23.93
2018-01-15T01:18:45.010Z,26.35
2018-01-15T01:21:10.995Z,25.00
2018-01-15T01:23:36.945Z,20.83
2018-01-15T01:26:02.896Z,25.37
2018-01-15T01:28:28.826Z,22.67
2018-01-15T01:30:54.758Z,23.93
2018-01-15T01:33:20.749Z,26.30
2018-01-15T01:35:46.710Z,22.23
2018-01-15T01:38:12.673Z,25.03
2018-01-15T01:40:38.594Z,24.47
2018-01-15T01:43:04.567Z,22.43
2018-01-15T01:45:30.494Z,24.47
2018-01-15T01:47:56.444Z,28.53
2018-01-15T01:50:22.398Z,21.53
2018-01-15T01:52:48.356Z,25.80
2018-01-15T01:55:14.350Z,25.40
2018-01-15T01:57:40.303Z,22.30
2018-01-15T02:00:07.046Z,26.00
2018-01-15T02:02:33.035Z,24.98
2018-01-15T02:04:59.063Z,25.53
2018-01-15T02:07:25.014Z,24.23
2018-01-15T02:09:51.992Z,24.20
2018-01-15T02:12:18.081Z,29.33
2018-01-15T02:14:44.733Z,24.63
2018-01-15T02:17:10.667Z,23.90
2018-01-15T02:19:36.662Z,22.67
2018-01-15T02:22:03.322Z,22.97
2018-01-15T02:24:29.248Z,24.50
2018-01-15T02:26:55.175Z,24.30
2018-01-15T02:29:21.158Z,24.80
2018-01-15T02:31:47.748Z,28.02
2018-01-15T02:34:13.706Z,28.02
2018-01-15T02:36:39.662Z,23.10
2018-01-15T02:39:05.663Z,28.37
2018-01-15T02:41:31.596Z,22.67
2018-01-15T02:43:57.521Z,27.73
2018-01-15T02:46:24.400Z,26.00
2018-01-15T02:48:50.338Z,30.08
2018-01-15T02:51:16.326Z,24.07
2018-01-15T02:53:42.274Z,26.23
2018-01-15T02:56:08.270Z,26.30
2018-01-15T02:58:34.373Z,23.20
2018-01-15T03:01:00.307Z,26.37
2018-01-15T03:03:26.279Z,27.37
2018-01-15T03:05:52.205Z,27.17
2018-01-15T03:08:18.159Z,23.47
2018-01-15T03:10:44.096Z,24.33
2018-01-15T03:13:10.019Z,27.67
2018-01-15T03:15:35.946Z,25.80
2018-01-15T03:18:01.895Z,23.57
2018-01-15T03:20:28.539Z,25.27
2018-01-15T03:22:54.586Z,28.60
2018-01-15T03:25:20.992Z,29.98
2018-01-15T03:27:46.970Z,23.75
2018-01-15T03:30:13.039Z,34.13
2018-01-15T03:32:38.963Z,29.05
2018-01-15T03:35:04.950Z,22.03
2018-01-15T03:37:30.919Z,23.73
2018-01-15T03:39:57.034Z,27.53
2018-01-15T03:42:22.925Z,24.73
2018-01-15T03:44:48.870Z,27.23
2018-01-15T03:47:14.793Z,24.80
2018-01-15T03:49:40.768Z,28.20
2018-01-15T03:52:06.732Z,25.60
2018-01-15T03:54:32.686Z,28.90
2018-01-15T03:56:58.668Z,27.17
2018-01-15T03:59:24.618Z,20.23
2018-01-15T04:01:52.191Z,26.50
2018-01-15T04:04:18.134Z,24.60
2018-01-15T04:06:44.087Z,29.20
2018-01-15T04:09:10.078Z,28.40
2018-01-15T04:11:35.997Z,23.67
2018-01-15T04:14:02.660Z,25.20
2018-01-15T04:16:28.630Z,26.58
2018-01-15T04:18:54.639Z,24.60
2018-01-15T04:21:20.559Z,24.02
2018-01-15T04:23:46.482Z,24.67
2018-01-15T04:26:12.466Z,23.70
2018-01-15T04:28:38.464Z,27.43
2018-01-15T04:31:04.513Z,23.77
2018-01-15T04:33:30.514Z,24.85
2018-01-15T04:35:56.469Z,26.87
2018-01-15T04:38:22.428Z,24.67
2018-01-15T04:40:48.447Z,27.20
2018-01-15T04:43:14.411Z,24.23
2018-01-15T04:45:40.390Z,26.80
2018-01-15T04:48:06.354Z,27.03
2018-01-15T04:50:32.331Z,24.93
2018-01-15T04:52:58.289Z,29.50
2018-01-15T04:55:24.253Z,26.93
2018-01-15T04:57:50.174Z,26.40
2018-01-15T05:00:16.126Z,22.73
2018-01-15T05:02:42.085Z,28.80
2018-01-15T05:05:07.995Z,21.20
2018-01-15T05:07:33.930Z,23.50
2018-01-15T05:09:59.899Z,27.63
2018-01-15T05:12:25.825Z,22.53
2018-01-15T05:14:51.796Z,30.30
2018-01-15T05:17:17.746Z,32.23
2018-01-15T05:19:44.503Z,25.50
2018-01-15T05:22:10.650Z,26.35
2018-01-15T05:24:36.613Z,23.77
2018-01-15T05:27:02.558Z,23.83
2018-01-15T05:29:28.718Z,29.13
2018-01-15T05:31:54.735Z,24.02
2018-01-15T05:34:21.683Z,25.62
2018-01-15T05:36:48.491Z,24.87
2018-01-15T05:39:14.433Z,25.30
2018-01-15T05:41:40.352Z,24.93
2018-01-15T05:44:06.276Z,27.30
2018-01-15T05:46:32.307Z,27.80
2018-01-15T05:48:59.254Z,30.23
2018-01-15T05:51:25.978Z,27.67
2018-01-15T05:53:51.957Z,27.27
2018-01-15T05:56:18.366Z,27.20
2018-01-15T05:58:44.351Z,30.08
2018-01-15T06:01:10.366Z,25.60
2018-01-15T06:03:36.322Z,25.77
2018-01-15T06:06:02.423Z,30.90
2018-01-15T06:08:28.393Z,28.15
2018-01-15T06:10:54.339Z,28.80
2018-01-15T06:13:20.276Z,26.30
2018-01-15T06:15:46.202Z,27.00
2018-01-15T06:18:12.152Z,27.87
2018-01-15T06:20:38.159Z,55.80
2018-01-15T06:23:04.078Z,37.60
2018-01-15T06:25:30.019Z,58.40
2018-01-15T06:27:56.216Z,29.30
2018-01-15T06:30:23.223Z,44.25
2018-01-15T06:32:49.361Z,44.50
2018-01-15T06:35:15.486Z,46.30
2018-01-15T06:37:42.434Z,29.42
2018-01-15T06:40:09.239Z,28.90
2018-01-15T06:42:35.332Z,27.52
2018-01-15T06:45:03.155Z,27.23
2018-01-15T06:47:29.269Z,28.30
2018-01-15T06:49:55.633Z,30.67
2018-01-15T06:52:21.750Z,30.88
2018-01-15T06:54:48.678Z,30.37
2018-01-15T06:57:14.677Z,33.90
2018-01-15T06:59:40.625Z,30.17
2018-01-15T07:02:07.339Z,31.10
2018-01-15T07:04:33.309Z,27.95
2018-01-15T07:06:59.387Z,28.53
2018-01-15T07:09:25.434Z,33.83
2018-01-15T07:11:52.151Z,30.30
2018-01-15T07:14:18.115Z,30.80
2018-01-15T07:16:44.199Z,26.97
2018-01-15T07:21:48.503Z,29.65
2018-01-15T07:24:16.383Z,43.78
2018-01-15T07:26:43.258Z,59.58
2018-01-15T07:29:09.231Z,77.50
2018-01-15T07:31:35.211Z,56.47
2018-01-15T07:34:01.246Z,55.53
2018-01-15T07:36:27.203Z,52.08
2018-01-15T07:38:53.302Z,53.40
2018-01-15T07:41:21.395Z,41.92
2018-01-15T07:43:48.294Z,42.15
2018-01-15T07:46:14.964Z,37.53
2018-01-15T07:48:40.936Z,32.88
2018-01-15T07:51:06.977Z,33.30
2018-01-15T07:53:33.722Z,35.53
2018-01-15T07:56:00.539Z,32.90
2018-01-15T07:58:26.560Z,32.85
2018-01-15T08:00:52.606Z,33.05
2018-01-15T08:03:18.557Z,33.17
2018-01-15T08:05:44.665Z,30.70
2018-01-15T08:08:11.732Z,37.40
2018-01-15T08:10:41.526Z,34.55
2018-01-15T08:13:07.553Z,40.15
2018-01-15T08:15:33.627Z,35.27
2018-01-15T08:18:01.215Z,31.25
2018-01-15T08:20:31.561Z,32.38
2018-01-15T08:23:00.215Z,29.60
2018-01-15T08:25:28.469Z,29.40
2018-01-15T08:27:54.503Z,29.92
2018-01-15T08:30:22.047Z,34.42
2018-01-15T08:32:48.018Z,25.80
2018-01-15T08:35:14.308Z,28.50
2018-01-15T08:37:40.910Z,26.70
2018-01-15T08:40:09.334Z,34.35
2018-01-15T08:42:36.416Z,27.75
2018-01-15T08:45:03.179Z,28.58
2018-01-15T08:47:31.405Z,24.17
2018-01-15T08:49:58.854Z,26.52
2018-01-15T08:52:25.805Z,31.45
2018-01-15T08:54:52.801Z,34.95
2018-01-15T09:02:25.605Z,33.33
2018-01-15T09:04:51.579Z,32.58
2018-01-15T09:07:18.370Z,33.40
2018-01-15T09:09:44.467Z,29.58
2018-01-15T09:12:12.229Z,30.92
2018-01-15T09:14:39.172Z,31.12
2018-01-15T09:17:05.196Z,28.73
2018-01-15T09:19:31.172Z,27.33
2018-01-15T09:21:58.052Z,31.20
2018-01-15T09:24:24.614Z,30.35
2018-01-15T09:26:50.627Z,36.83
2018-01-15T09:29:18.073Z,27.20
2018-01-15T09:31:44.012Z,29.60
2018-01-15T09:34:11.526Z,32.30
2018-01-15T09:36:38.379Z,31.75
2018-01-15T09:39:06.728Z,31.60
2018-01-15T09:41:32.805Z,30.50
2018-01-15T09:43:58.922Z,30.23
2018-01-15T09:46:31.505Z,31.52
2018-01-15T09:48:57.456Z,30.27
2018-01-15T09:51:24.368Z,25.80
2018-01-15T09:53:51.248Z,33.30
2018-01-15T09:56:17.587Z,31.45
2018-01-15T09:58:45.463Z,29.75
2018-01-15T10:01:12.479Z,33.67
2018-01-15T10:03:38.731Z,31.12
2018-01-15T10:06:04.846Z,31.73
2018-01-15T10:08:31.506Z,28.52
2018-01-15T10:10:58.596Z,31.75
2018-01-15T10:13:25.396Z,28.17
2018-01-15T10:15:51.732Z,30.25
2018-01-15T10:18:18.702Z,30.80
2018-01-15T10:20:44.837Z,31.17
2018-01-15T10:23:10.998Z,31.48
2018-01-15T10:25:37.260Z,29.70
2018-01-15T10:28:04.260Z,32.33
2018-01-15T10:30:30.530Z,31.65
2018-01-15T10:32:56.648Z,35.60
2018-01-15T10:35:22.773Z,33.40
2018-01-15T10:37:49.059Z,35.40
2018-01-15T10:40:15.057Z,31.45
2018-01-15T10:42:41.043Z,28.73
2018-01-15T10:45:07.777Z,32.58
2018-01-15T10:47:34.556Z,34.67
2018-01-15T10:50:00.571Z,35.45
2018-01-15T10:52:30.148Z,35.47
2018-01-15T10:54:57.083Z,34.90
2018-01-15T10:57:23.738Z,30.30
2018-01-15T10:59:50.025Z,33.22
2018-01-15T11:02:16.242Z,30.17
2018-01-15T11:04:42.195Z,30.77
2018-01-15T11:07:08.316Z,32.63
2018-01-15T11:09:34.320Z,34.97
2018-01-15T11:12:02.649Z,30.73
2018-01-15T11:14:28.724Z,30.15
2018-01-15T11:16:54.664Z,31.77
2018-01-15T11:19:20.658Z,33.90
2018-01-15T11:21:46.668Z,63.33
2018-01-15T11:24:12.617Z,39.37
2018-01-15T11:26:38.635Z,33.00
2018-01-15T11:29:05.603Z,33.67
2018-01-15T11:31:31.534Z,38.72
2018-01-15T11:33:57.533Z,41.60
2018-01-15T11:36:24.467Z,37.78
2018-01-15T11:38:50.799Z,32.45
2018-01-15T11:41:16.826Z,32.93
2018-01-15T11:43:44.322Z,36.23
2018-01-15T11:46:12.213Z,38.38
2018-01-15T11:48:38.322Z,34.58
2018-01-15T11:51:06.014Z,36.58
2018-01-15T11:53:32.057Z,39.00
2018-01-15T11:55:58.660Z,35.08
2018-01-15T11:58:25.187Z,37.50
2018-01-15T12:00:51.306Z,32.60
2018-01-15T12:03:22.567Z,34.00
2018-01-15T12:05:49.401Z,28.20
2018-01-15T12:08:15.335Z,39.80
2018-01-15T12:10:41.908Z,33.87
2018-01-15T12:13:07.934Z,31.92
2018-01-15T12:15:33.896Z,36.90
2018-01-15T12:18:00.784Z,36.37
2018-01-15T12:20:27.031Z,34.05
2018-01-15T12:22:53.054Z,32.50
2018-01-15T12:25:19.150Z,33.40
2018-01-15T12:27:45.102Z,30.88
2018-01-15T12:30:11.138Z,29.60
2018-01-15T12:32:37.081Z,29.20
2018-01-15T12:35:07.990Z,30.23
2018-01-15T12:37:34.011Z,30.23
2018-01-15T12:40:00.992Z,28.20
2018-01-15T12:42:27.119Z,28.07
2018-01-15T12:44:53.558Z,26.33
2018-01-15T12:47:20.397Z,33.27
2018-01-15T12:49:46.356Z,31.53
2018-01-15T12:52:12.922Z,27.00
2018-01-15T12:54:40.868Z,28.77
2018-01-15T12:57:07.142Z,27.10
2018-01-15T12:59:33.752Z,38.30
2018-01-15T13:02:01.539Z,34.90
2018-01-15T13:04:29.387Z,30.10
2018-01-15T13:06:58.517Z,33.13
2018-01-15T13:09:24.979Z,36.00
2018-01-15T13:11:52.736Z,36.60
2018-01-15T13:14:19.530Z,33.20
2018-01-15T13:16:47.962Z,32.97
2018-01-15T13:19:15.706Z,33.53
2018-01-15T13:21:43.512Z,29.70
2018-01-15T13:24:09.446Z,33.00
2018-01-15T13:26:36.957Z,27.47
2018-01-15T13:29:03.006Z,29.77
2018-01-15T13:31:29.495Z,35.27
2018-01-15T13:33:58.114Z,33.27
2018-01-15T13:36:25.566Z,30.07
2018-01-15T13:38:52.239Z,33.63
2018-01-15T13:41:20.258Z,34.80
2018-01-15T13:43:46.261Z,23.80
2018-01-15T13:46:12.230Z,29.00
2018-01-15T13:48:40.348Z,30.90
2018-01-15T13:51:07.146Z,27.87
2018-01-15T13:53:35.040Z,31.37
2018-01-15T13:56:02.972Z,27.30
2018-01-15T13:58:30.600Z,30.20
2018-01-15T14:00:57.133Z,28.50
2018-01-15T14:03:23.270Z,30.60
2018-01-15T14:05:50.127Z,36.80
2018-01-15T14:08:16.251Z,26.10
2018-01-15T14:10:43.677Z,28.17
2018-01-15T14:13:10.183Z,23.30
2018-01-15T14:15:36.364Z,23.10
2018-01-15T14:18:02.484Z,20.13
2018-01-15T14:20:29.339Z,20.03
2018-01-15T14:22:56.400Z,14.57
2018-01-15T14:25:24.473Z,16.47
2018-01-15T14:27:51.868Z,15.47
2018-01-15T14:30:19.876Z,17.03
2018-01-15T14:32:47.645Z,16.87
2018-01-15T14:35:13.875Z,15.03
2018-01-15T14:37:39.926Z,13.80
2018-01-15T14:40:06.721Z,16.47
2018-01-15T14:42:33.502Z,16.53
2018-01-15T14:44:59.831Z,14.63
2018-01-15T14:47:26.610Z,16.47
2018-01-15T14:49:53.314Z,16.27
2018-01-15T14:52:22.600Z,12.67
2018-01-15T14:54:48.635Z,14.00
2018-01-15T14:57:15.260Z,17.50
2018-01-15T14:59:42.142Z,11.80
2018-01-15T15:02:09.404Z,17.30
2018-01-15T15:04:36.524Z,15.20
2018-01-15T15:07:02.546Z,11.53
2018-01-15T15:09:28.998Z,12.40
2018-01-15T15:11:54.968Z,11.97
2018-01-15T15:14:21.101Z,12.13
2018-01-15T15:16:47.094Z,10.60
2018-01-15T15:19:13.059Z,10.00
2018-01-15T15:21:39.730Z,10.77
2018-01-15T15:24:06.356Z,10.10
2018-01-15T15:26:35.147Z,10.43
2018-01-15T15:29:01.988Z,9.93
2018-01-15T15:31:28.835Z,9.47
2018-01-15T15:33:55.332Z,10.90
2018-01-15T15:36:22.365Z,10.80
2018-01-15T15:38:48.310Z,10.50
2018-01-15T15:41:15.762Z,14.57
2018-01-15T15:43:41.782Z,19.37
2018-01-15T15:46:08.575Z,12.20
2018-01-15T15:48:35.287Z,13.60
2018-01-15T15:51:04.273Z,11.57
2018-01-15T15:53:32.209Z,14.97
2018-01-15T15:55:58.166Z,14.10
2018-01-15T15:58:24.703Z,13.10
2018-01-15T16:00:53.368Z,17.70
2018-01-15T16:03:23.437Z,17.73
2018-01-15T16:05:49.793Z,21.20
2018-01-15T16:08:15.859Z,18.03
2018-01-15T16:10:41.859Z,17.10
2018-01-15T16:13:07.822Z,20.30
2018-01-15T16:15:33.803Z,18.50
2018-01-15T16:20:34.738Z,22.70
2018-01-15T16:23:05.427Z,20.47
2018-01-15T16:25:31.574Z,23.20
2018-01-15T16:27:58.282Z,21.17
2018-01-15T16:30:27.089Z,25.80
2018-01-15T16:32:53.078Z,18.93
2018-01-15T16:35:23.206Z,23.07
2018-01-15T16:37:51.443Z,20.27
2018-01-15T16:40:19.976Z,19.20
2018-01-15T16:42:47.028Z,22.00
2018-01-15T16:45:13.984Z,25.00
2018-01-15T16:47:40.268Z,20.50
2018-01-15T16:50:13.186Z,20.30
2018-01-15T16:52:40.252Z,20.13
2018-01-15T16:55:06.674Z,21.13
2018-01-15T16:57:34.402Z,19.33
2018-01-15T17:00:01.469Z,21.73
2018-01-15T17:02:30.654Z,20.30
2018-01-15T17:04:59.774Z,17.47
2018-01-15T17:07:30.328Z,21.23
2018-01-15T17:09:56.852Z,21.10
2018-01-15T17:12:27.237Z,23.10
2018-01-15T17:14:56.149Z,21.73
2018-01-15T17:17:22.221Z,19.97
2018-01-15T17:19:48.860Z,19.33
2018-01-15T17:22:15.035Z,19.50
2018-01-15T17:24:41.512Z,19.80
2018-01-15T17:27:10.046Z,23.73
2018-01-15T17:29:35.988Z,18.97
2018-01-15T17:32:02.863Z,18.33
2018-01-15T17:34:29.598Z,16.37
2018-01-15T17:36:56.548Z,21.20
2018-01-15T17:39:24.116Z,19.00
2018-01-15T17:41:53.129Z,18.20
2018-01-15T17:44:21.648Z,21.93
2018-01-15T17:46:49.020Z,16.10
2018-01-15T17:49:16.485Z,17.67
2018-01-15T17:51:45.007Z,15.73
2018-01-15T17:54:11.809Z,19.83
2018-01-15T17:56:38.055Z,18.87
2018-01-15T17:59:09.434Z,19.80
2018-01-15T18:01:37.440Z,19.83
2018-01-15T18:04:04.584Z,15.27
2018-01-15T18:06:31.058Z,17.60
2018-01-15T18:08:59.157Z,16.40
2018-01-15T18:11:28.386Z,18.87
2018-01-15T18:13:55.139Z,22.20
2018-01-15T18:16:21.854Z,20.13
2018-01-15T18:18:48.558Z,18.67
2018-01-15T18:21:15.700Z,16.43
2018-01-15T18:23:41.732Z,18.13
2018-01-15T18:26:07.748Z,17.67
2018-01-15T18:28:34.021Z,15.67
2018-01-15T18:31:01.543Z,14.13
2018-01-15T18:33:28.394Z,16.30
2018-01-15T18:35:56.309Z,18.77
2018-01-15T18:38:28.416Z,18.77
2018-01-15T18:40:57.216Z,16.83
2018-01-15T18:43:26.422Z,15.70
2018-01-15T18:51:01.654Z,18.33
2018-01-15T18:53:30.043Z,14.77
2018-01-15T18:55:57.661Z,15.00
2018-01-15T18:58:30.191Z,15.13
2018-01-15T19:03:45.784Z,14.83
2018-01-15T19:06:15.748Z,15.60
2018-01-15T19:08:47.617Z,13.43
2018-01-15T19:11:13.556Z,14.43
2018-01-15T19:13:43.963Z,12.77
2018-01-15T19:16:12.650Z,15.60
2018-01-15T19:18:40.996Z,14.30
2018-01-15T19:21:08.572Z,12.00
2018-01-15T19:23:42.803Z,14.27
2018-01-15T19:26:11.776Z,18.87
2018-01-15T19:28:40.057Z,15.57
2018-01-15T19:31:13.752Z,14.40
2018-01-15T19:33:41.232Z,11.60
2018-01-15T19:36:13.221Z,12.93
2018-01-15T19:38:39.476Z,11.80
2018-01-15T19:41:06.494Z,11.17
2018-01-15T19:43:33.406Z,11.00
2018-01-15T19:46:07.585Z,10.43
2018-01-15T19:48:41.351Z,11.20
2018-01-15T19:51:23.665Z,11.50
2018-01-15T19:53:58.380Z,13.13
2018-01-15T19:56:30.493Z,10.30
2018-01-15T19:59:04.350Z,9.53
2018-01-15T20:01:39.938Z,12.10
2018-01-15T20:04:16.642Z,13.10
2018-01-15T20:06:48.861Z,11.07
2018-01-15T20:09:27.472Z,11.37
2018-01-15T20:11:53.450Z,10.50
2018-01-15T20:14:24.969Z,10.60
2018-01-15T20:16:54.223Z,8.63
2018-01-15T20:19:23.566Z,8.97
2018-01-15T20:21:52.312Z,8.77
2018-01-15T20:24:21.102Z,8.30
2018-01-15T20:26:48.084Z,7.77
2018-01-15T20:29:16.697Z,9.00
2018-01-15T20:31:44.670Z,10.50
2018-01-15T20:34:13.199Z,10.50
2018-01-15T20:36:43.102Z,10.30
2018-01-15T20:39:11.693Z,10.67
2018-01-15T20:41:39.347Z,12.50
2018-01-15T20:44:07.225Z,9.63
2018-01-15T20:46:36.943Z,8.23
2018-01-15T20:49:04.700Z,8.33
2018-01-15T20:51:31.798Z,7.60
2018-01-15T20:53:58.801Z,9.60
2018-01-15T20:56:26.091Z,7.80
2018-01-15T20:58:54.336Z,10.27
2018-01-15T21:01:20.442Z,8.37
2018-01-15T21:03:52.804Z,9.20
2018-01-15T21:06:20.471Z,8.10
2018-01-15T21:08:46.561Z,8.33
2018-01-15T21:11:14.324Z,8.63
2018-01-15T21:13:44.450Z,8.93
2018-01-15T21:16:12.462Z,7.80
2018-01-15T21:18:39.936Z,7.67
2018-01-15T21:21:05.903Z,6.83
2018-01-15T21:23:32.490Z,6.83
2018-01-15T21:25:58.534Z,5.57
2018-01-15T21:28:24.430Z,5.87
2018-01-15T21:30:50.544Z,5.97
2018-01-15T21:33:17.226Z,5.83
2018-01-15T21:35:44.808Z,6.63
2018-01-15T21:38:10.754Z,6.20
2018-01-15T21:40:36.685Z,8.00
2018-01-15T21:43:03.286Z,5.20
2018-01-15T21:45:29.215Z,5.30
2018-01-15T21:47:55.119Z,6.30
2018-01-15T21:50:22.174Z,6.37
2018-01-15T21:52:48.098Z,5.93
2018-01-15T21:55:14.084Z,5.87
2018-01-15T21:57:40.110Z,6.00
2018-01-15T22:00:08.636Z,5.73
2018-01-15T22:02:34.792Z,9.77
2018-01-15T22:05:00.769Z,6.97
2018-01-15T22:07:27.215Z,6.93
2018-01-15T22:09:54.769Z,7.33
2018-01-15T22:12:21.669Z,6.00
2018-01-15T22:14:48.774Z,6.80
2018-01-15T22:17:15.943Z,6.60
2018-01-15T22:19:41.910Z,6.10
2018-01-15T22:22:07.864Z,6.33
2018-01-15T22:24:33.851Z,7.57
2018-01-15T22:26:59.792Z,5.83
2018-01-15T22:29:25.729Z,7.60
2018-01-15T22:31:51.776Z,8.60
2018-01-15T22:34:17.742Z,7.13
2018-01-15T22:36:43.672Z,9.13
2018-01-15T22:39:09.617Z,7.80
2018-01-15T22:41:35.561Z,5.73
2018-01-15T22:44:02.167Z,5.50
2018-01-15T22:46:28.220Z,6.50
2018-01-15T22:48:54.250Z,5.83
2018-01-15T22:51:20.239Z,5.27
2018-01-15T22:53:46.997Z,5.03
2018-01-15T22:56:12.946Z,4.70
2018-01-15T22:58:38.882Z,5.10
2018-01-15T23:01:05.601Z,5.20
2018-01-15T23:03:31.557Z,4.40
2018-01-15T23:05:57.555Z,5.47
2018-01-15T23:08:25.077Z,4.40
2018-01-15T23:10:50.985Z,4.13
2018-01-15T23:13:16.905Z,3.37
2018-01-15T23:15:43.413Z,3.60
2018-01-15T23:18:09.640Z,3.43
2018-01-15T23:20:35.563Z,4.63
2018-01-15T23:23:01.561Z,3.57
2018-01-15T23:25:27.511Z,3.77
2018-01-15T23:27:53.409Z,8.10
2018-01-15T23:30:19.901Z,6.20
2018-01-15T23:32:45.878Z,2.97
2018-01-15T23:35:11.827Z,3.37
2018-01-15T23:37:37.741Z,3.53
2018-01-15T23:40:03.735Z,3.07
2018-01-15T23:42:29.694Z,5.67
2018-01-15T23:44:55.653Z,3.43
2018-01-15T23:47:21.579Z,3.00
2018-01-15T23:49:49.022Z,3.20
2018-01-15T23:52:14.991Z,3.43
2018-01-15T23:54:40.917Z,2.40
2018-01-15T23:57:06.845Z,2.90
2018-01-15T23:59:33.917Z,2.50
